CW8081 Thessaloniki GR current weather conditions

sailwx.info

Wind from 209 at 8 knots gusting 12

Air temperature 20.6° C
Dewpoint 13.0° C

Last reported at 2017-Apr-26 15:06 UTC.
Time now 2017-Apr-26 15:53 UTC

Location: N 40°34' E 022°58'.
View on Google Maps.

See reports from other nearby stations

  
Tides and Currents Weather Stations Pressure Air Temp Water Temp Dewpoint Dewpoint Depression Visibility Wind Speed Wind Dir Waves Ship Positions
date/time (UTC)wind fromknots sea level pressurealtimeterstation pressurevisibilityair tempwater tempwave heightnotes
2017-Apr-26 15:06 209 8 gusting 12 20.6
2017-Apr-26 15:01 205 8 gusting 15 20.6
2017-Apr-26 14:36 211 9 gusting 13 21.7
2017-Apr-26 14:16 220 6 gusting 11 21.7
2017-Apr-26 13:46 210 9 gusting 13 22.2
2017-Apr-26 13:41 211 7 gusting 12 22.2
2017-Apr-26 13:36 208 9 gusting 13 22.2
2017-Apr-26 13:16 202 8 gusting 12 22.8
2017-Apr-26 13:11 200 5 gusting 8 22.2
2017-Apr-26 13:06 222 6 gusting 10 22.2
2017-Apr-26 12:41 224 6 gusting 8 22.8
2017-Apr-26 12:36 204 5 gusting 8 22.8
2017-Apr-26 12:16 239 2 gusting 6 22.8
2017-Apr-26 12:11 246 1 gusting 6 22.8
2017-Apr-26 12:06 167 3 gusting 6 22.2
2017-Apr-26 12:01 243 1 gusting 6 21.1
2017-Apr-26 11:41 007 4 gusting 6 20.6
2017-Apr-26 11:31 248 1 gusting 6 20.0
2017-Apr-26 11:11 282 4 gusting 6 18.3
2017-Apr-26 11:01 262 6 gusting 10 18.3
2017-Apr-26 10:46 247 5 gusting 8 18.3
2017-Apr-26 10:41 282 6 gusting 8 18.3
2017-Apr-26 10:36 268 4 gusting 7 18.3
2017-Apr-26 10:31 259 4 gusting 10 18.3
2017-Apr-26 10:16 227 5 gusting 8 18.3
2017-Apr-26 10:11 239 5 gusting 7 18.3
2017-Apr-26 10:06 239 4 gusting 8 18.3
2017-Apr-26 09:46 244 4 gusting 7 17.8
2017-Apr-26 09:31 264 5 gusting 7 18.3
2017-Apr-26 09:16 262 4 gusting 6 17.8
2017-Apr-26 08:41 240 4 gusting 6 16.1
2017-Apr-26 08:36 225 5 gusting 6 16.1
2017-Apr-26 08:31 243 5 gusting 7 16.1
2017-Apr-26 08:16 215 4 gusting 6 16.1
2017-Apr-26 08:01 211 4 gusting 6 15.6
2017-Apr-26 07:46 251 4 gusting 6 15.0
2017-Apr-26 07:41 250 4 gusting 6 15.0
2017-Apr-26 07:36 245 4 gusting 6 15.0
2017-Apr-26 07:31 237 4 gusting 6 15.0
2017-Apr-26 07:11 237 5 gusting 8 14.4
2017-Apr-26 07:06 247 5 gusting 7 14.4
2017-Apr-26 07:01 247 5 gusting 6 14.4
2017-Apr-26 06:41 212 2 gusting 5 13.9
2017-Apr-26 06:36 224 2 gusting 6 13.3
2017-Apr-26 06:31 208 4 gusting 6 13.3
2017-Apr-26 06:16 220 2 gusting 4 12.8
2017-Apr-26 06:06 217 3 gusting 5 12.2
2017-Apr-26 05:46 212 4 gusting 5 11.7
2017-Apr-26 05:41 209 11.7
2017-Apr-26 05:36 207 11.7
2017-Apr-26 05:31 206 11.1
2017-Apr-26 05:16 205 10.6
2017-Apr-26 05:11 205 10.6
2017-Apr-26 05:06 205 10.6
2017-Apr-26 04:41 205 9.4
2017-Apr-26 04:11 205 8.9
2017-Apr-26 04:06 205 8.9
2017-Apr-26 03:46 205 8.9
2017-Apr-26 03:31 205 8.9
2017-Apr-26 03:16 205 8.9
2017-Apr-26 02:46 205 9.4
2017-Apr-26 02:41 205 9.4
2017-Apr-26 02:16 205 9.4
2017-Apr-26 02:11 205 9.4
2017-Apr-26 02:06 205 8.9
2017-Apr-26 02:01 205 8.9
2017-Apr-26 01:41 205 8.9
2017-Apr-26 01:31 205 8.9
2017-Apr-26 01:16 205 8.9
2017-Apr-26 01:01 205 8.9
2017-Apr-26 00:46 205 9.4
2017-Apr-26 00:41 205 9.4
2017-Apr-26 00:36 205 9.4
2017-Apr-26 00:31 205 9.4
2017-Apr-26 00:16 205 10.0
2017-Apr-26 00:11 205 10.0
2017-Apr-26 00:06 205 10.0
2017-Apr-26 00:01 205 10.0
2017-Apr-25 23:46 205 10.6
2017-Apr-25 23:41 205 10.6
2017-Apr-25 23:31 205 10.6
2017-Apr-25 23:11 205 10.6
2017-Apr-25 23:06 205 10.6
2017-Apr-25 23:01 205 11.1
2017-Apr-25 22:46 205 11.1
2017-Apr-25 22:41 205 11.1
2017-Apr-25 22:36 205 11.1
2017-Apr-25 22:31 205 11.1
2017-Apr-25 22:16 205 11.7
2017-Apr-25 22:11 205 11.7
2017-Apr-25 22:06 205 11.7
2017-Apr-25 22:01 205 11.7
2017-Apr-25 21:46 205 11.7
2017-Apr-25 21:41 205 11.7
2017-Apr-25 21:36 205 11.7
2017-Apr-25 21:31 205 12.2
2017-Apr-25 21:16 205 12.2
2017-Apr-25 21:06 205 12.2
2017-Apr-25 20:46 205 12.2
2017-Apr-25 20:41 205 12.2
2017-Apr-25 20:36 205 12.8
2017-Apr-25 20:31 205 12.8
2017-Apr-25 20:16 205 12.8
2017-Apr-25 20:11 206 12.8
2017-Apr-25 20:01 207 12.8
2017-Apr-25 19:46 206 13.3
2017-Apr-25 19:41 206 13.3
2017-Apr-25 19:16 206 13.3
2017-Apr-25 19:11 207 13.3
2017-Apr-25 18:46 207 13.9
2017-Apr-25 18:41 207 13.9
2017-Apr-25 18:36 207 13.9
2017-Apr-25 18:16 206 1 gusting 4 13.9
2017-Apr-25 18:06 207 0 gusting 4 13.9
2017-Apr-25 18:01 207 1 gusting 5 14.4
2017-Apr-25 17:46 204 2 gusting 6 14.4
2017-Apr-25 17:41 202 3 gusting 5 14.4
2017-Apr-25 17:36 202 3 gusting 6 14.4
2017-Apr-25 17:16 193 5 gusting 7 15.0
2017-Apr-25 17:11 200 4 gusting 7 15.0
2017-Apr-25 17:06 195 5 gusting 7 15.0
2017-Apr-25 17:01 208 6 gusting 10 15.6
2017-Apr-25 16:46 199 6 gusting 10 15.6
2017-Apr-25 16:41 198 6 gusting 10 16.1
2017-Apr-25 16:11 198 7 gusting 12 16.7
2017-Apr-25 15:46 210 6 gusting 13 17.2
2017-Apr-25 15:41 194 7 gusting 11 17.2
2017-Apr-25 15:31 203 8 gusting 12 17.2
2017-Apr-25 15:16 205 6 gusting 12 17.8
2017-Apr-25 15:01 201 8 gusting 13 17.8
2017-Apr-25 14:46 199 8 gusting 15 17.8
2017-Apr-25 14:31 208 9 gusting 15 18.3
2017-Apr-25 14:01 200 10 gusting 15 18.9
2017-Apr-25 13:46 197 8 gusting 13 18.9
2017-Apr-25 13:41 204 8 gusting 13 18.9
2017-Apr-25 13:36 206 9 gusting 15 18.9
2017-Apr-25 13:16 201 8 gusting 13 19.4
2017-Apr-25 13:11 199 8 gusting 13 19.4
2017-Apr-25 13:06 196 7 gusting 10 19.4
2017-Apr-25 12:41 206 8 gusting 15 19.4
2017-Apr-25 12:36 204 7 gusting 13 19.4
2017-Apr-25 12:31 205 8 gusting 17 19.4
2017-Apr-25 12:11 200 7 gusting 13 19.4
2017-Apr-25 12:01 193 9 gusting 13 19.4
2017-Apr-25 11:46 214 6 gusting 8 18.3
2017-Apr-25 11:31 262 6 gusting 11 17.2
2017-Apr-25 11:16 264 6 gusting 11 17.2
2017-Apr-25 11:11 261 7 gusting 11 16.7
2017-Apr-25 11:06 268 7 gusting 11 17.2
2017-Apr-25 11:01 259 6 gusting 12 17.2
2017-Apr-25 10:46 258 7 gusting 11 17.2
2017-Apr-25 10:41 260 6 gusting 10 17.2
2017-Apr-25 10:36 243 6 gusting 10 17.2
2017-Apr-25 10:11 287 2 gusting 8 16.7
2017-Apr-25 10:06 279 6 gusting 11 16.7
2017-Apr-25 10:01 270 6 gusting 10 16.7
2017-Apr-25 09:36 265 6 gusting 10 16.1
2017-Apr-25 09:31 261 6 gusting 11 16.7
2017-Apr-25 09:11 255 6 gusting 11 16.7
2017-Apr-25 09:06 269 4 gusting 8 16.7
2017-Apr-25 09:01 252 6 gusting 10 16.1
2017-Apr-25 08:46 236 6 gusting 8 15.6
2017-Apr-25 08:41 243 6 gusting 8 15.6
2017-Apr-25 08:36 267 6 gusting 10 15.6
2017-Apr-25 08:11 248 4 gusting 6 16.1
2017-Apr-25 08:06 223 4 gusting 6 16.1
2017-Apr-25 08:01 212 4 gusting 7 16.1
2017-Apr-25 07:46 221 4 gusting 6 15.6
2017-Apr-25 07:36 236 3 gusting 6 15.6
2017-Apr-25 07:31 233 3 gusting 6 15.6
2017-Apr-25 07:16 244 4 gusting 6 15.0
2017-Apr-25 07:11 259 2 gusting 5 15.0
2017-Apr-25 06:46 228 1 gusting 5 14.4
2017-Apr-25 06:41 234 4 gusting 5 14.4
2017-Apr-25 06:31 294 14.4
2017-Apr-25 06:16 342 2 gusting 4 13.3
2017-Apr-25 06:11 030 13.3
2017-Apr-25 06:01 030 12.8
2017-Apr-25 05:46 030 11.7
2017-Apr-25 05:41 030 11.7
2017-Apr-25 05:36 030 11.1
2017-Apr-25 05:31 030 11.1
2017-Apr-25 05:16 030 10.0
2017-Apr-25 05:11 030 10.0
2017-Apr-25 05:06 030 9.4
2017-Apr-25 04:46 030 8.9
2017-Apr-25 04:41 030 8.9
2017-Apr-25 04:36 030 8.9
2017-Apr-25 04:11 030 8.9
2017-Apr-25 04:06 030 8.9
2017-Apr-25 04:01 030 8.9
2017-Apr-25 03:41 030 8.9
2017-Apr-25 03:36 030 8.9
2017-Apr-25 03:31 030 9.4
2017-Apr-25 03:16 030 9.4
2017-Apr-25 03:11 030 9.4
2017-Apr-25 03:06 030 9.4
2017-Apr-25 03:01 030 9.4
2017-Apr-25 02:36 030 10.0
2017-Apr-25 02:31 030 10.0
2017-Apr-25 02:16 030 10.0
2017-Apr-25 02:11 030 10.6
2017-Apr-25 02:06 030 10.6
2017-Apr-25 02:01 030 10.6
2017-Apr-25 01:41 030 11.1
2017-Apr-25 01:36 030 11.1
2017-Apr-25 01:16 030 11.7
2017-Apr-25 01:11 030 11.7
2017-Apr-25 01:06 030 11.7
2017-Apr-25 01:01 030 11.7
2017-Apr-25 00:36 030 12.2
2017-Apr-25 00:31 030 12.2
2017-Apr-25 00:11 030 12.2
2017-Apr-25 00:06 030 12.2
2017-Apr-25 00:01 030 12.2
2017-Apr-24 23:41 052 1 gusting 5 11.7
2017-Apr-24 23:36 067 11.7
2017-Apr-24 23:16 067 11.1
2017-Apr-24 23:11 067 11.1
2017-Apr-24 23:06 067 0 gusting 4 11.1
2017-Apr-24 23:01 069 1 gusting 4 11.1
2017-Apr-24 22:41 068 0 gusting 2 10.6
2017-Apr-24 22:31 070 10.6
2017-Apr-24 22:11 117 10.6
2017-Apr-24 22:06 126 10.6
2017-Apr-24 22:01 119 10.6
2017-Apr-24 21:46 146 0 gusting 4 11.1
2017-Apr-24 21:41 138 11.1
2017-Apr-24 21:36 138 11.1
2017-Apr-24 21:31 138 11.1
2017-Apr-24 21:16 139 1 gusting 4 11.1
2017-Apr-24 21:11 117 0 gusting 4 11.7
2017-Apr-24 21:06 115 11.7
2017-Apr-24 20:46 115 11.7
2017-Apr-24 20:41 115 11.7
2017-Apr-24 20:36 115 11.7
2017-Apr-24 20:31 104 0 gusting 4 12.2
2017-Apr-24 20:16 134 0 gusting 6 12.2
2017-Apr-24 20:11 143 1 gusting 6 12.2
2017-Apr-24 20:01 150 0 gusting 6 12.2
2017-Apr-24 19:46 147 2 gusting 6 12.2
2017-Apr-24 19:41 142 1 gusting 6 12.8
2017-Apr-24 19:36 138 2 gusting 6 12.8
2017-Apr-24 19:16 155 5 gusting 7 12.8
2017-Apr-24 19:11 141 1 gusting 6 12.8
2017-Apr-24 19:06 132 3 gusting 7 12.8
2017-Apr-24 19:01 145 3 gusting 7 12.8
2017-Apr-24 18:46 139 3 gusting 8 12.8
2017-Apr-24 18:41 132 3 gusting 6 13.3
2017-Apr-24 18:36 140 2 gusting 6 13.3
2017-Apr-24 18:31 155 1 gusting 8 13.3
2017-Apr-24 18:16 151 4 gusting 10 13.3
2017-Apr-24 18:11 140 3 gusting 7 13.9
2017-Apr-24 18:06 140 3 gusting 8 13.9
2017-Apr-24 17:46 142 4 gusting 7 14.4
2017-Apr-24 17:41 152 5 gusting 10 14.4
2017-Apr-24 17:36 136 4 gusting 7 14.4
2017-Apr-24 17:31 155 4 gusting 11 14.4
2017-Apr-24 17:16 145 4 gusting 10 15.0
2017-Apr-24 17:01 156 4 gusting 10 15.6
2017-Apr-24 16:46 147 5 gusting 10 16.1
2017-Apr-24 16:41 164 5 gusting 7 16.1
2017-Apr-24 16:36 151 5 gusting 10 16.1
2017-Apr-24 16:31 144 5 gusting 12 16.7
2017-Apr-24 16:16 165 5 gusting 11 17.2
2017-Apr-24 16:11 155 7 gusting 11 17.2
2017-Apr-24 16:06 147 5 gusting 12 17.2
2017-Apr-24 16:01 169 4 gusting 10 17.8
2017-Apr-24 15:41 161 7 gusting 12 17.8
2017-Apr-24 15:31 171 6 gusting 13 17.8
2017-Apr-24 15:16 169 6 gusting 12 18.3
2017-Apr-24 15:11 186 7 gusting 13 18.9
2017-Apr-24 15:06 178 5 gusting 10 18.9
2017-Apr-24 15:01 168 6 gusting 13 18.9